MBW weather

Melbourne Moorabbin Airport
Melbourne, Victoria, Australia

Public forecast

Using degrees Celsius for public forecast. Weather courtesy of forecast.io.

METAR (pilot weather report)

Closest report is Melbourne Essendon Airport, 17.6 nm (32.7 km) NNW. Retrieved 2017/11/25 01:00 UTC (3 minutes ago):

YMEN 250100Z AUTO 34011KT 290V360 9999 // NCD 30/11 Q1012

TAF (pilot weather forecast)

Forecast is more than 12 hours old.

Closest forecast is Melbourne International Airport, 21.9 nm (40.6 km) NW. Retrieved 2017/11/24 00:36 UTC (1 day ago):

TAF YMML 242321Z 2500/2606 36014KT CAVOK FM250200 35014KT 9999 -SHRA SCT080 FM250700 VRB05KT 9999 -SHRA SCT080 FM252300 36013KT 9999 -SHRA SCT080 FM260500 20012KT 9999 -SHRA SCT080 PROB30 INTER 2503/2510 VRB25G40KT 3000 TSRA SCT040 SCT090CB PROB30 INTER 2603/2606 VRB25G40KT 3000 TSRA SCT040 SCT090CB